sensor_id;sensor_type;location;lat;lon;timestamp;pressure;altitude;pressure_sealevel;temperature;humidity
50774;BME280;36745;48.544;8.918;2023-12-14T00:01:53;96317.66;;;5.43;100.00
50774;BME280;36745;48.544;8.918;2023-12-14T00:05:13;96314.56;;;5.41;100.00
50774;BME280;36745;48.544;8.918;2023-12-14T00:08:33;96318.84;;;5.42;100.00
50774;BME280;36745;48.544;8.918;2023-12-14T00:11:53;96327.78;;;5.59;100.00
50774;BME280;36745;48.544;8.918;2023-12-14T00:15:13;96332.38;;;5.62;100.00
50774;BME280;36745;48.544;8.918;2023-12-14T00:18:33;96337.28;;;5.55;100.00
50774;BME280;36745;48.544;8.918;2023-12-14T00:21:53;96334.19;;;5.53;100.00
50774;BME280;36745;48.544;8.918;2023-12-14T00:25:12;96341.88;;;5.58;100.00
50774;BME280;36745;48.544;8.918;2023-12-14T00:28:32;96344.06;;;5.63;100.00
50774;BME280;36745;48.544;8.918;2023-12-14T00:31:52;96344.78;;;5.67;100.00
50774;BME280;36745;48.544;8.918;2023-12-14T00:35:12;96343.91;;;5.70;100.00
50774;BME280;36745;48.544;8.918;2023-12-14T00:38:31;96346.22;;;5.71;100.00
50774;BME280;36745;48.544;8.918;2023-12-14T00:41:51;96351.84;;;5.64;100.00
50774;BME280;36745;48.544;8.918;2023-12-14T00:45:11;96356.56;;;5.64;100.00
50774;BME280;36745;48.544;8.918;2023-12-14T00:48:31;96358.38;;;5.54;100.00
50774;BME280;36745;48.544;8.918;2023-12-14T00:51:50;96356.06;;;5.53;100.00
50774;BME280;36745;48.544;8.918;2023-12-14T00:55:10;96367.88;;;5.49;100.00
50774;BME280;36745;48.544;8.918;2023-12-14T00:58:30;96373.59;;;5.55;100.00
50774;BME280;36745;48.544;8.918;2023-12-14T01:01:49;96381.78;;;5.55;100.00
50774;BME280;36745;48.544;8.918;2023-12-14T01:05:09;96384.06;;;5.57;100.00
50774;BME280;36745;48.544;8.918;2023-12-14T01:08:29;96382.09;;;5.57;100.00
50774;BME280;36745;48.544;8.918;2023-12-14T01:11:49;96391.19;;;5.54;100.00
50774;BME280;36745;48.544;8.918;2023-12-14T01:15:09;96388.09;;;5.52;100.00
50774;BME280;36745;48.544;8.918;2023-12-14T01:18:28;96391.84;;;5.58;100.00
50774;BME280;36745;48.544;8.918;2023-12-14T01:21:48;96407.91;;;5.56;100.00
50774;BME280;36745;48.544;8.918;2023-12-14T01:25:08;96407.66;;;5.67;100.00
50774;BME280;36745;48.544;8.918;2023-12-14T01:28:28;96415.88;;;5.67;100.00
50774;BME280;36745;48.544;8.918;2023-12-14T01:31:48;96421.81;;;5.62;100.00
50774;BME280;36745;48.544;8.918;2023-12-14T01:35:08;96436.88;;;5.70;100.00
50774;BME280;36745;48.544;8.918;2023-12-14T01:38:27;96442.34;;;5.70;100.00
50774;BME280;36745;48.544;8.918;2023-12-14T01:41:47;96449.53;;;5.47;100.00
50774;BME280;36745;48.544;8.918;2023-12-14T01:45:09;96447.81;;;5.54;100.00
50774;BME280;36745;48.544;8.918;2023-12-14T01:48:28;96450.53;;;5.54;100.00
50774;BME280;36745;48.544;8.918;2023-12-14T01:51:48;96459.00;;;5.59;100.00
50774;BME280;36745;48.544;8.918;2023-12-14T01:55:08;96454.47;;;5.53;100.00
50774;BME280;36745;48.544;8.918;2023-12-14T01:58:28;96457.56;;;5.55;100.00
50774;BME280;36745;48.544;8.918;2023-12-14T02:01:52;96470.03;;;5.56;100.00
50774;BME280;36745;48.544;8.918;2023-12-14T02:05:12;96476.00;;;5.67;100.00
50774;BME280;36745;48.544;8.918;2023-12-14T02:08:32;96474.97;;;5.77;100.00
50774;BME280;36745;48.544;8.918;2023-12-14T02:11:52;96474.53;;;5.78;100.00
50774;BME280;36745;48.544;8.918;2023-12-14T02:15:13;96485.47;;;5.62;100.00
50774;BME280;36745;48.544;8.918;2023-12-14T02:18:33;96490.16;;;5.62;100.00
50774;BME280;36745;48.544;8.918;2023-12-14T02:21:52;96487.78;;;5.64;100.00
50774;BME280;36745;48.544;8.918;2023-12-14T02:25:12;96485.41;;;5.66;100.00
50774;BME280;36745;48.544;8.918;2023-12-14T02:28:32;96483.19;;;5.61;100.00
50774;BME280;36745;48.544;8.918;2023-12-14T02:31:52;96484.91;;;5.55;100.00
50774;BME280;36745;48.544;8.918;2023-12-14T02:35:11;96482.84;;;5.59;100.00
50774;BME280;36745;48.544;8.918;2023-12-14T02:38:31;96490.38;;;5.55;100.00
50774;BME280;36745;48.544;8.918;2023-12-14T02:41:51;96498.88;;;5.57;100.00
50774;BME280;36745;48.544;8.918;2023-12-14T02:45:11;96500.84;;;5.56;100.00
50774;BME280;36745;48.544;8.918;2023-12-14T02:48:31;96498.72;;;5.64;100.00
50774;BME280;36745;48.544;8.918;2023-12-14T02:51:51;96503.16;;;5.58;100.00
50774;BME280;36745;48.544;8.918;2023-12-14T02:55:13;96499.66;;;5.57;100.00
50774;BME280;36745;48.544;8.918;2023-12-14T02:58:32;96511.38;;;5.58;100.00
50774;BME280;36745;48.544;8.918;2023-12-14T03:01:52;96508.22;;;5.59;100.00
50774;BME280;36745;48.544;8.918;2023-12-14T03:05:12;96519.66;;;5.70;100.00
50774;BME280;36745;48.544;8.918;2023-12-14T03:08:32;96520.75;;;5.73;100.00
50774;BME280;36745;48.544;8.918;2023-12-14T03:11:52;96525.41;;;5.76;100.00
50774;BME280;36745;48.544;8.918;2023-12-14T03:15:12;96524.47;;;5.82;100.00
50774;BME280;36745;48.544;8.918;2023-12-14T03:18:31;96536.66;;;5.78;100.00
50774;BME280;36745;48.544;8.918;2023-12-14T03:21:51;96536.34;;;5.76;100.00
50774;BME280;36745;48.544;8.918;2023-12-14T03:25:11;96535.97;;;5.74;100.00
50774;BME280;36745;48.544;8.918;2023-12-14T03:28:31;96531.69;;;5.73;100.00
50774;BME280;36745;48.544;8.918;2023-12-14T03:31:51;96549.13;;;5.63;100.00
50774;BME280;36745;48.544;8.918;2023-12-14T03:35:10;96546.06;;;5.61;100.00
50774;BME280;36745;48.544;8.918;2023-12-14T03:38:31;96556.81;;;5.68;100.00
50774;BME280;36745;48.544;8.918;2023-12-14T03:41:51;96558.88;;;5.64;100.00
50774;BME280;36745;48.544;8.918;2023-12-14T03:45:11;96564.00;;;5.62;100.00
50774;BME280;36745;48.544;8.918;2023-12-14T03:48:30;96565.63;;;5.59;100.00
50774;BME280;36745;48.544;8.918;2023-12-14T03:51:50;96569.16;;;5.76;100.00
50774;BME280;36745;48.544;8.918;2023-12-14T03:55:10;96579.22;;;5.79;100.00
50774;BME280;36745;48.544;8.918;2023-12-14T03:58:30;96582.13;;;5.72;100.00
50774;BME280;36745;48.544;8.918;2023-12-14T04:01:50;96597.06;;;5.67;100.00
50774;BME280;36745;48.544;8.918;2023-12-14T04:05:10;96602.28;;;5.78;100.00
50774;BME280;36745;48.544;8.918;2023-12-14T04:08:29;96608.78;;;5.84;100.00
50774;BME280;36745;48.544;8.918;2023-12-14T04:11:49;96618.25;;;5.63;100.00
50774;BME280;36745;48.544;8.918;2023-12-14T04:15:09;96614.09;;;5.75;100.00
50774;BME280;36745;48.544;8.918;2023-12-14T04:18:29;96630.59;;;5.71;100.00
50774;BME280;36745;48.544;8.918;2023-12-14T04:21:49;96628.38;;;5.82;100.00
50774;BME280;36745;48.544;8.918;2023-12-14T04:25:09;96631.13;;;5.82;100.00
50774;BME280;36745;48.544;8.918;2023-12-14T04:28:28;96634.94;;;5.85;100.00
50774;BME280;36745;48.544;8.918;2023-12-14T04:31:48;96638.19;;;5.80;100.00
50774;BME280;36745;48.544;8.918;2023-12-14T04:35:08;96638.78;;;5.71;100.00
50774;BME280;36745;48.544;8.918;2023-12-14T04:38:27;96645.53;;;5.67;100.00
50774;BME280;36745;48.544;8.918;2023-12-14T04:41:47;96640.53;;;5.62;100.00
50774;BME280;36745;48.544;8.918;2023-12-14T04:45:07;96646.88;;;5.59;100.00
50774;BME280;36745;48.544;8.918;2023-12-14T04:48:28;96657.16;;;5.71;100.00
50774;BME280;36745;48.544;8.918;2023-12-14T04:51:48;96665.53;;;5.80;100.00
50774;BME280;36745;48.544;8.918;2023-12-14T04:55:08;96667.09;;;5.81;100.00
50774;BME280;36745;48.544;8.918;2023-12-14T04:58:27;96662.53;;;5.74;100.00
50774;BME280;36745;48.544;8.918;2023-12-14T05:01:47;96674.09;;;5.82;100.00
50774;BME280;36745;48.544;8.918;2023-12-14T05:05:07;96674.25;;;5.75;100.00
50774;BME280;36745;48.544;8.918;2023-12-14T05:08:27;96682.28;;;5.66;100.00
50774;BME280;36745;48.544;8.918;2023-12-14T05:11:47;96690.75;;;5.71;100.00
50774;BME280;36745;48.544;8.918;2023-12-14T05:15:07;96691.44;;;5.75;100.00
50774;BME280;36745;48.544;8.918;2023-12-14T05:18:27;96703.34;;;5.85;100.00
50774;BME280;36745;48.544;8.918;2023-12-14T05:21:47;96705.28;;;5.84;100.00
50774;BME280;36745;48.544;8.918;2023-12-14T05:25:07;96708.69;;;5.72;100.00
50774;BME280;36745;48.544;8.918;2023-12-14T05:28:27;96720.25;;;5.80;100.00
50774;BME280;36745;48.544;8.918;2023-12-14T05:31:47;96723.56;;;5.91;100.00
50774;BME280;36745;48.544;8.918;2023-12-14T05:35:07;96739.75;;;5.82;100.00
50774;BME280;36745;48.544;8.918;2023-12-14T05:38:26;96743.59;;;5.84;100.00
50774;BME280;36745;48.544;8.918;2023-12-14T05:41:46;96757.00;;;5.79;100.00
50774;BME280;36745;48.544;8.918;2023-12-14T05:45:06;96762.31;;;5.86;100.00
50774;BME280;36745;48.544;8.918;2023-12-14T05:48:26;96769.88;;;5.78;100.00
50774;BME280;36745;48.544;8.918;2023-12-14T05:51:47;96774.13;;;5.83;100.00
50774;BME280;36745;48.544;8.918;2023-12-14T05:55:08;96782.41;;;5.99;100.00
50774;BME280;36745;48.544;8.918;2023-12-14T05:58:29;96787.25;;;5.92;100.00
50774;BME280;36745;48.544;8.918;2023-12-14T06:01:49;96784.78;;;5.97;100.00
50774;BME280;36745;48.544;8.918;2023-12-14T06:05:09;96794.19;;;5.96;100.00
50774;BME280;36745;48.544;8.918;2023-12-14T06:08:29;96786.16;;;6.05;100.00
50774;BME280;36745;48.544;8.918;2023-12-14T06:11:49;96800.84;;;5.95;100.00
50774;BME280;36745;48.544;8.918;2023-12-14T06:15:08;96799.66;;;5.96;100.00
50774;BME280;36745;48.544;8.918;2023-12-14T06:18:29;96806.59;;;6.01;100.00
50774;BME280;36745;48.544;8.918;2023-12-14T06:21:49;96816.47;;;5.75;100.00
50774;BME280;36745;48.544;8.918;2023-12-14T06:25:09;96833.22;;;5.77;100.00
50774;BME280;36745;48.544;8.918;2023-12-14T06:28:29;96829.28;;;5.78;100.00
50774;BME280;36745;48.544;8.918;2023-12-14T06:31:49;96832.75;;;5.82;100.00
50774;BME280;36745;48.544;8.918;2023-12-14T06:35:10;96837.94;;;5.76;100.00
50774;BME280;36745;48.544;8.918;2023-12-14T06:38:30;96842.91;;;5.81;100.00
50774;BME280;36745;48.544;8.918;2023-12-14T06:41:54;96848.31;;;5.85;100.00
50774;BME280;36745;48.544;8.918;2023-12-14T06:45:14;96853.06;;;5.81;100.00
50774;BME280;36745;48.544;8.918;2023-12-14T06:48:33;96859.84;;;5.73;100.00
50774;BME280;36745;48.544;8.918;2023-12-14T06:51:53;96855.13;;;5.77;100.00
50774;BME280;36745;48.544;8.918;2023-12-14T06:55:13;96860.44;;;5.84;100.00
50774;BME280;36745;48.544;8.918;2023-12-14T06:58:34;96865.38;;;5.93;100.00
50774;BME280;36745;48.544;8.918;2023-12-14T07:01:54;96886.59;;;5.85;100.00
50774;BME280;36745;48.544;8.918;2023-12-14T07:05:15;96888.88;;;5.90;100.00
50774;BME280;36745;48.544;8.918;2023-12-14T07:08:35;96895.91;;;5.91;100.00
50774;BME280;36745;48.544;8.918;2023-12-14T07:11:55;96905.28;;;5.90;100.00
50774;BME280;36745;48.544;8.918;2023-12-14T07:15:15;96912.31;;;5.91;100.00
50774;BME280;36745;48.544;8.918;2023-12-14T07:18:36;96915.50;;;5.86;100.00
50774;BME280;36745;48.544;8.918;2023-12-14T07:21:56;96927.06;;;5.97;100.00
50774;BME280;36745;48.544;8.918;2023-12-14T07:25:16;96937.88;;;6.04;100.00
50774;BME280;36745;48.544;8.918;2023-12-14T07:28:35;96946.19;;;5.97;100.00
50774;BME280;36745;48.544;8.918;2023-12-14T07:31:55;96957.44;;;6.03;100.00
50774;BME280;36745;48.544;8.918;2023-12-14T07:35:15;96957.16;;;5.97;100.00
50774;BME280;36745;48.544;8.918;2023-12-14T07:38:35;96956.53;;;6.09;100.00
50774;BME280;36745;48.544;8.918;2023-12-14T07:41:54;96957.59;;;6.15;100.00
50774;BME280;36745;48.544;8.918;2023-12-14T07:45:14;96969.59;;;6.21;100.00
50774;BME280;36745;48.544;8.918;2023-12-14T07:48:34;96967.91;;;6.27;100.00
50774;BME280;36745;48.544;8.918;2023-12-14T07:51:54;96982.50;;;6.21;100.00
50774;BME280;36745;48.544;8.918;2023-12-14T07:55:14;96987.56;;;6.22;100.00
50774;BME280;36745;48.544;8.918;2023-12-14T07:58:33;96993.88;;;6.19;100.00
50774;BME280;36745;48.544;8.918;2023-12-14T08:01:53;96995.28;;;6.27;100.00
50774;BME280;36745;48.544;8.918;2023-12-14T08:05:13;97003.84;;;6.29;100.00
50774;BME280;36745;48.544;8.918;2023-12-14T08:08:32;97007.78;;;6.28;100.00
50774;BME280;36745;48.544;8.918;2023-12-14T08:11:52;97013.19;;;6.32;100.00
50774;BME280;36745;48.544;8.918;2023-12-14T08:15:12;97021.47;;;6.28;100.00
50774;BME280;36745;48.544;8.918;2023-12-14T08:18:32;97029.88;;;6.38;100.00
50774;BME280;36745;48.544;8.918;2023-12-14T08:21:51;97037.41;;;6.33;100.00
50774;BME280;36745;48.544;8.918;2023-12-14T08:25:15;97045.81;;;6.43;100.00
50774;BME280;36745;48.544;8.918;2023-12-14T08:28:35;97056.53;;;6.57;100.00
50774;BME280;36745;48.544;8.918;2023-12-14T08:31:54;97066.84;;;6.49;100.00
50774;BME280;36745;48.544;8.918;2023-12-14T08:35:16;97057.16;;;6.21;100.00
50774;BME280;36745;48.544;8.918;2023-12-14T08:38:36;97065.75;;;6.23;100.00
50774;BME280;36745;48.544;8.918;2023-12-14T08:41:56;97076.56;;;6.30;100.00
50774;BME280;36745;48.544;8.918;2023-12-14T08:45:16;97086.09;;;6.46;100.00
50774;BME280;36745;48.544;8.918;2023-12-14T08:48:35;97094.66;;;6.48;100.00
50774;BME280;36745;48.544;8.918;2023-12-14T08:51:55;97101.31;;;6.47;100.00
50774;BME280;36745;48.544;8.918;2023-12-14T08:55:15;97100.41;;;6.53;100.00
50774;BME280;36745;48.544;8.918;2023-12-14T08:58:35;97106.53;;;6.61;100.00
50774;BME280;36745;48.544;8.918;2023-12-14T09:01:57;97114.38;;;6.59;100.00
50774;BME280;36745;48.544;8.918;2023-12-14T09:05:16;97119.53;;;6.57;100.00
50774;BME280;36745;48.544;8.918;2023-12-14T09:08:38;97118.88;;;6.49;100.00
50774;BME280;36745;48.544;8.918;2023-12-14T09:11:59;97123.66;;;6.65;100.00
50774;BME280;36745;48.544;8.918;2023-12-14T09:15:19;97129.13;;;6.88;100.00
50774;BME280;36745;48.544;8.918;2023-12-14T09:18:38;97140.16;;;7.04;100.00
50774;BME280;36745;48.544;8.918;2023-12-14T09:21:58;97150.13;;;7.14;100.00
50774;BME280;36745;48.544;8.918;2023-12-14T09:25:18;97167.84;;;7.30;100.00
50774;BME280;36745;48.544;8.918;2023-12-14T09:28:39;97175.44;;;7.42;100.00
50774;BME280;36745;48.544;8.918;2023-12-14T09:31:59;97180.78;;;7.49;100.00
50774;BME280;36745;48.544;8.918;2023-12-14T09:35:19;97182.84;;;7.45;100.00
50774;BME280;36745;48.544;8.918;2023-12-14T09:38:38;97178.75;;;7.33;100.00
50774;BME280;36745;48.544;8.918;2023-12-14T09:42:06;97187.28;;;7.39;100.00
50774;BME280;36745;48.544;8.918;2023-12-14T09:45:28;97193.50;;;7.59;100.00
50774;BME280;36745;48.544;8.918;2023-12-14T09:48:51;97190.78;;;7.59;100.00
50774;BME280;36745;48.544;8.918;2023-12-14T09:52:12;97194.72;;;7.58;100.00
50774;BME280;36745;48.544;8.918;2023-12-14T09:55:32;97196.94;;;7.63;100.00
50774;BME280;36745;48.544;8.918;2023-12-14T09:58:52;97199.84;;;7.56;100.00
50774;BME280;36745;48.544;8.918;2023-12-14T10:02:13;97196.25;;;7.59;100.00
50774;BME280;36745;48.544;8.918;2023-12-14T10:05:32;97200.47;;;7.64;100.00
50774;BME280;36745;48.544;8.918;2023-12-14T10:08:55;97216.34;;;7.72;100.00
50774;BME280;36745;48.544;8.918;2023-12-14T10:12:15;97220.31;;;7.71;100.00
50774;BME280;36745;48.544;8.918;2023-12-14T10:15:45;97223.47;;;7.70;100.00
50774;BME280;36745;48.544;8.918;2023-12-14T10:19:06;97234.59;;;7.82;100.00
50774;BME280;36745;48.544;8.918;2023-12-14T10:22:28;97237.66;;;7.84;100.00
50774;BME280;36745;48.544;8.918;2023-12-14T10:25:47;97241.97;;;7.85;100.00
50774;BME280;36745;48.544;8.918;2023-12-14T10:29:07;97237.25;;;7.86;100.00
50774;BME280;36745;48.544;8.918;2023-12-14T10:32:29;97237.16;;;7.89;100.00
50774;BME280;36745;48.544;8.918;2023-12-14T10:35:48;97241.66;;;7.99;100.00
50774;BME280;36745;48.544;8.918;2023-12-14T10:39:10;97241.00;;;8.12;100.00
50774;BME280;36745;48.544;8.918;2023-12-14T10:42:35;97246.19;;;8.26;100.00
50774;BME280;36745;48.544;8.918;2023-12-14T10:45:55;97252.72;;;8.32;100.00
50774;BME280;36745;48.544;8.918;2023-12-14T10:49:15;97254.97;;;8.37;100.00
50774;BME280;36745;48.544;8.918;2023-12-14T10:52:35;97250.53;;;8.43;100.00
50774;BME280;36745;48.544;8.918;2023-12-14T10:55:56;97263.69;;;8.52;100.00
50774;BME280;36745;48.544;8.918;2023-12-14T10:59:19;97264.28;;;8.59;100.00
50774;BME280;36745;48.544;8.918;2023-12-14T11:02:45;97256.53;;;8.54;100.00
50774;BME280;36745;48.544;8.918;2023-12-14T11:06:37;97265.72;;;8.64;100.00
50774;BME280;36745;48.544;8.918;2023-12-14T11:09:55;97268.31;;;8.71;100.00
50774;BME280;36745;48.544;8.918;2023-12-14T11:13:17;97264.88;;;8.83;100.00
50774;BME280;36745;48.544;8.918;2023-12-14T11:16:38;97265.50;;;8.74;100.00
50774;BME280;36745;48.544;8.918;2023-12-14T11:20:25;97261.19;;;8.90;100.00
50774;BME280;36745;48.544;8.918;2023-12-14T11:23:47;97257.56;;;8.93;100.00
50774;BME280;36745;48.544;8.918;2023-12-14T11:27:09;97260.44;;;8.89;100.00
50774;BME280;36745;48.544;8.918;2023-12-14T11:30:28;97265.66;;;8.83;100.00
50774;BME280;36745;48.544;8.918;2023-12-14T11:33:48;97263.84;;;8.93;100.00
50774;BME280;36745;48.544;8.918;2023-12-14T11:37:09;97271.81;;;9.20;100.00
50774;BME280;36745;48.544;8.918;2023-12-14T11:40:29;97290.97;;;9.23;100.00
50774;BME280;36745;48.544;8.918;2023-12-14T11:43:48;97299.16;;;9.27;100.00
50774;BME280;36745;48.544;8.918;2023-12-14T11:47:08;97310.59;;;9.09;100.00
50774;BME280;36745;48.544;8.918;2023-12-14T11:50:28;97307.56;;;9.04;100.00
50774;BME280;36745;48.544;8.918;2023-12-14T11:53:50;97316.34;;;9.15;100.00
50774;BME280;36745;48.544;8.918;2023-12-14T11:57:10;97309.22;;;9.17;100.00
50774;BME280;36745;48.544;8.918;2023-12-14T12:00:31;97317.91;;;9.00;100.00
50774;BME280;36745;48.544;8.918;2023-12-14T12:03:51;97316.97;;;9.06;100.00
50774;BME280;36745;48.544;8.918;2023-12-14T12:07:11;97316.50;;;8.92;100.00
50774;BME280;36745;48.544;8.918;2023-12-14T12:10:31;97325.28;;;8.87;100.00
50774;BME280;36745;48.544;8.918;2023-12-14T12:13:55;97327.06;;;8.77;100.00
50774;BME280;36745;48.544;8.918;2023-12-14T12:17:15;97331.47;;;8.74;100.00
50774;BME280;36745;48.544;8.918;2023-12-14T12:20:35;97333.44;;;8.74;100.00
50774;BME280;36745;48.544;8.918;2023-12-14T12:23:55;97338.16;;;8.73;100.00
50774;BME280;36745;48.544;8.918;2023-12-14T12:27:14;97347.75;;;8.65;100.00
50774;BME280;36745;48.544;8.918;2023-12-14T12:30:34;97342.19;;;8.69;100.00
50774;BME280;36745;48.544;8.918;2023-12-14T12:33:54;97341.44;;;8.84;100.00
50774;BME280;36745;48.544;8.918;2023-12-14T12:37:14;97339.38;;;8.89;100.00
50774;BME280;36745;48.544;8.918;2023-12-14T12:40:33;97340.47;;;8.91;100.00
50774;BME280;36745;48.544;8.918;2023-12-14T12:43:53;97330.59;;;8.94;100.00
50774;BME280;36745;48.544;8.918;2023-12-14T12:47:13;97329.84;;;8.93;100.00
50774;BME280;36745;48.544;8.918;2023-12-14T12:50:33;97333.00;;;8.92;100.00
50774;BME280;36745;48.544;8.918;2023-12-14T12:53:54;97348.66;;;8.95;100.00
50774;BME280;36745;48.544;8.918;2023-12-14T12:57:14;97355.34;;;8.94;100.00
50774;BME280;36745;48.544;8.918;2023-12-14T13:00:34;97350.53;;;8.81;100.00
50774;BME280;36745;48.544;8.918;2023-12-14T13:03:55;97356.38;;;8.83;100.00
50774;BME280;36745;48.544;8.918;2023-12-14T13:07:17;97355.59;;;8.83;100.00
50774;BME280;36745;48.544;8.918;2023-12-14T13:10:37;97362.97;;;8.86;100.00
50774;BME280;36745;48.544;8.918;2023-12-14T13:13:58;97369.59;;;8.89;100.00
50774;BME280;36745;48.544;8.918;2023-12-14T13:17:20;97360.34;;;8.99;100.00
50774;BME280;36745;48.544;8.918;2023-12-14T13:20:40;97377.34;;;8.94;100.00
50774;BME280;36745;48.544;8.918;2023-12-14T13:24:00;97380.97;;;8.91;100.00
50774;BME280;36745;48.544;8.918;2023-12-14T13:27:19;97384.19;;;8.85;100.00
50774;BME280;36745;48.544;8.918;2023-12-14T13:30:39;97386.34;;;8.78;100.00
50774;BME280;36745;48.544;8.918;2023-12-14T13:33:59;97392.09;;;8.83;100.00
50774;BME280;36745;48.544;8.918;2023-12-14T13:37:19;97396.44;;;8.65;100.00
50774;BME280;36745;48.544;8.918;2023-12-14T13:40:39;97395.66;;;8.64;100.00
50774;BME280;36745;48.544;8.918;2023-12-14T13:43:59;97397.91;;;8.69;100.00
50774;BME280;36745;48.544;8.918;2023-12-14T13:47:19;97403.75;;;8.71;100.00
50774;BME280;36745;48.544;8.918;2023-12-14T13:50:39;97408.97;;;8.66;100.00
50774;BME280;36745;48.544;8.918;2023-12-14T13:54:00;97413.88;;;8.58;100.00
50774;BME280;36745;48.544;8.918;2023-12-14T13:57:19;97417.63;;;8.64;100.00
50774;BME280;36745;48.544;8.918;2023-12-14T14:00:41;97424.00;;;8.61;100.00
50774;BME280;36745;48.544;8.918;2023-12-14T14:04:00;97422.47;;;8.40;100.00
50774;BME280;36745;48.544;8.918;2023-12-14T14:07:20;97443.16;;;8.45;100.00
50774;BME280;36745;48.544;8.918;2023-12-14T14:10:41;97440.84;;;8.43;100.00
50774;BME280;36745;48.544;8.918;2023-12-14T14:14:01;97454.78;;;8.33;100.00
50774;BME280;36745;48.544;8.918;2023-12-14T14:17:21;97462.91;;;8.40;100.00
50774;BME280;36745;48.544;8.918;2023-12-14T14:20:41;97470.44;;;8.36;100.00
50774;BME280;36745;48.544;8.918;2023-12-14T14:24:00;97474.31;;;8.38;100.00
50774;BME280;36745;48.544;8.918;2023-12-14T14:27:20;97485.00;;;8.33;100.00
50774;BME280;36745;48.544;8.918;2023-12-14T14:30:40;97488.16;;;8.31;100.00
50774;BME280;36745;48.544;8.918;2023-12-14T14:34:00;97499.25;;;8.24;100.00
50774;BME280;36745;48.544;8.918;2023-12-14T14:37:22;97501.72;;;8.19;100.00
50774;BME280;36745;48.544;8.918;2023-12-14T14:40:43;97518.19;;;8.19;100.00
50774;BME280;36745;48.544;8.918;2023-12-14T14:44:02;97526.44;;;8.19;100.00
50774;BME280;36745;48.544;8.918;2023-12-14T14:47:22;97534.44;;;8.10;100.00
50774;BME280;36745;48.544;8.918;2023-12-14T14:50:43;97536.41;;;8.09;100.00
50774;BME280;36745;48.544;8.918;2023-12-14T14:54:03;97545.88;;;8.05;100.00
50774;BME280;36745;48.544;8.918;2023-12-14T14:57:23;97549.00;;;8.07;100.00
50774;BME280;36745;48.544;8.918;2023-12-14T15:00:42;97548.28;;;8.02;100.00
50774;BME280;36745;48.544;8.918;2023-12-14T15:04:02;97557.09;;;7.90;100.00
50774;BME280;36745;48.544;8.918;2023-12-14T15:07:22;97562.81;;;7.76;100.00
50774;BME280;36745;48.544;8.918;2023-12-14T15:10:42;97577.84;;;7.68;100.00
50774;BME280;36745;48.544;8.918;2023-12-14T15:14:02;97578.69;;;7.65;100.00
50774;BME280;36745;48.544;8.918;2023-12-14T15:17:22;97589.75;;;7.58;100.00
50774;BME280;36745;48.544;8.918;2023-12-14T15:24:40;97601.25;;;7.76;100.00
50774;BME280;36745;48.544;8.918;2023-12-14T15:28:31;97610.72;;;7.72;100.00
50774;BME280;36745;48.544;8.918;2023-12-14T15:31:51;97619.44;;;7.63;100.00
50774;BME280;36745;48.544;8.918;2023-12-14T15:35:33;97624.00;;;7.46;100.00
50774;BME280;36745;48.544;8.918;2023-12-14T15:38:53;97637.75;;;7.43;100.00
50774;BME280;36745;48.544;8.918;2023-12-14T15:42:13;97638.22;;;7.38;100.00
50774;BME280;36745;48.544;8.918;2023-12-14T15:45:33;97646.44;;;7.38;100.00
50774;BME280;36745;48.544;8.918;2023-12-14T15:48:53;97657.50;;;7.31;100.00
50774;BME280;36745;48.544;8.918;2023-12-14T15:52:13;97651.22;;;7.34;100.00
50774;BME280;36745;48.544;8.918;2023-12-14T15:55:33;97662.91;;;7.38;100.00
50774;BME280;36745;48.544;8.918;2023-12-14T15:58:53;97673.00;;;7.44;100.00
50774;BME280;36745;48.544;8.918;2023-12-14T16:02:13;97667.84;;;7.50;100.00
50774;BME280;36745;48.544;8.918;2023-12-14T16:05:34;97673.00;;;7.44;100.00
50774;BME280;36745;48.544;8.918;2023-12-14T16:08:54;97678.19;;;7.35;100.00
50774;BME280;36745;48.544;8.918;2023-12-14T16:12:13;97681.16;;;7.18;100.00
50774;BME280;36745;48.544;8.918;2023-12-14T16:15:33;97686.72;;;7.10;100.00
50774;BME280;36745;48.544;8.918;2023-12-14T16:18:53;97687.63;;;6.97;100.00
50774;BME280;36745;48.544;8.918;2023-12-14T16:22:13;97695.41;;;7.02;100.00
50774;BME280;36745;48.544;8.918;2023-12-14T16:25:32;97699.03;;;6.92;100.00
50774;BME280;36745;48.544;8.918;2023-12-14T16:28:52;97697.97;;;6.82;100.00
50774;BME280;36745;48.544;8.918;2023-12-14T16:32:12;97704.31;;;6.72;100.00
50774;BME280;36745;48.544;8.918;2023-12-14T16:35:32;97714.16;;;6.66;100.00
50774;BME280;36745;48.544;8.918;2023-12-14T16:38:53;97718.59;;;6.53;100.00
50774;BME280;36745;48.544;8.918;2023-12-14T16:42:12;97731.91;;;6.51;100.00
50774;BME280;36745;48.544;8.918;2023-12-14T16:45:32;97731.59;;;6.42;100.00
50774;BME280;36745;48.544;8.918;2023-12-14T16:48:52;97738.25;;;6.41;100.00
50774;BME280;36745;48.544;8.918;2023-12-14T16:52:12;97743.72;;;6.41;100.00
50774;BME280;36745;48.544;8.918;2023-12-14T16:55:34;97752.69;;;6.45;100.00
50774;BME280;36745;48.544;8.918;2023-12-14T16:58:54;97756.22;;;6.42;100.00
50774;BME280;36745;48.544;8.918;2023-12-14T17:02:13;97763.59;;;6.48;100.00
50774;BME280;36745;48.544;8.918;2023-12-14T17:05:34;97767.06;;;6.56;100.00
50774;BME280;36745;48.544;8.918;2023-12-14T17:08:53;97770.69;;;6.42;100.00
50774;BME280;36745;48.544;8.918;2023-12-14T17:12:15;97775.75;;;6.44;100.00
50774;BME280;36745;48.544;8.918;2023-12-14T17:15:37;97790.50;;;6.60;100.00
50774;BME280;36745;48.544;8.918;2023-12-14T17:18:56;97787.41;;;6.55;100.00
50774;BME280;36745;48.544;8.918;2023-12-14T17:22:16;97785.16;;;6.46;100.00
50774;BME280;36745;48.544;8.918;2023-12-14T17:25:36;97787.50;;;6.44;100.00
50774;BME280;36745;48.544;8.918;2023-12-14T17:28:56;97794.97;;;6.40;100.00
50774;BME280;36745;48.544;8.918;2023-12-14T17:32:16;97796.91;;;6.40;100.00
50774;BME280;36745;48.544;8.918;2023-12-14T17:35:36;97809.44;;;6.41;100.00
50774;BME280;36745;48.544;8.918;2023-12-14T17:38:56;97811.31;;;6.51;100.00
50774;BME280;36745;48.544;8.918;2023-12-14T17:42:16;97825.78;;;6.55;100.00
50774;BME280;36745;48.544;8.918;2023-12-14T17:45:36;97825.81;;;6.51;100.00